createdAt,value
2019-05-18T16:46:44.797Z,48.70
2019-05-18T16:49:13.718Z,50.00
2019-05-18T16:51:42.983Z,51.20
2019-05-18T16:54:11.771Z,52.20
2019-05-18T16:56:40.474Z,53.00
2019-05-18T16:59:09.218Z,52.50
2019-05-18T17:01:37.940Z,51.90
2019-05-18T17:04:07.692Z,52.50
2019-05-18T17:06:36.486Z,52.60
2019-05-18T17:09:05.470Z,52.60
2019-05-18T17:11:34.289Z,52.70
2019-05-18T17:14:03.174Z,52.50
2019-05-18T17:16:33.062Z,52.90
2019-05-18T17:19:01.882Z,53.20
2019-05-18T17:21:30.781Z,53.40
2019-05-18T17:23:59.503Z,53.20
2019-05-18T17:26:28.283Z,53.50
2019-05-18T17:28:57.096Z,54.30
2019-05-18T17:31:25.874Z,54.10
2019-05-18T17:33:54.675Z,54.40
2019-05-18T17:36:23.484Z,55.10
2019-05-18T17:38:52.266Z,56.70
2019-05-18T17:41:21.059Z,56.50
2019-05-18T17:43:49.854Z,55.20
2019-05-18T17:46:18.642Z,55.10
2019-05-18T17:48:47.397Z,54.40
2019-05-18T17:51:16.189Z,55.40
2019-05-18T17:53:45.243Z,56.50
2019-05-18T17:56:14.018Z,57.10
2019-05-18T17:58:43.727Z,57.10
2019-05-18T18:01:16.386Z,59.80
2019-05-18T18:03:46.590Z,59.00
2019-05-18T18:06:15.302Z,59.60
2019-05-18T18:08:44.081Z,59.70
2019-05-18T18:11:12.870Z,61.00
2019-05-18T18:13:42.681Z,62.70
2019-05-18T18:16:11.508Z,64.10
2019-05-18T18:18:40.494Z,63.40
2019-05-18T18:21:09.273Z,63.90
2019-05-18T18:23:37.994Z,62.30
2019-05-18T18:26:06.779Z,63.30
2019-05-18T18:28:35.573Z,63.40
2019-05-18T18:31:04.347Z,63.00
2019-05-18T18:33:33.170Z,63.50
2019-05-18T18:36:01.953Z,64.10
2019-05-18T18:38:30.737Z,64.00
2019-05-18T18:40:59.463Z,65.40
2019-05-18T18:43:28.247Z,65.70
2019-05-18T18:45:57.063Z,66.70
2019-05-18T18:48:26.542Z,67.00
2019-05-18T18:50:55.708Z,67.70
2019-05-18T18:53:24.490Z,68.20
2019-05-18T18:55:53.280Z,70.30
2019-05-18T18:58:22.094Z,70.20
2019-05-18T19:00:50.866Z,71.50
2019-05-18T19:03:19.650Z,71.20
2019-05-18T19:05:48.400Z,71.70
2019-05-18T19:08:17.187Z,72.80
2019-05-18T19:10:45.982Z,74.20
2019-05-18T19:13:14.780Z,74.40
2019-05-18T19:15:43.557Z,74.70
2019-05-18T19:18:12.363Z,76.00
2019-05-18T19:20:41.144Z,77.20
2019-05-18T19:23:09.935Z,77.60
2019-05-18T19:25:38.721Z,78.10
2019-05-18T19:28:07.500Z,77.80
2019-05-18T19:30:36.320Z,78.00
2019-05-18T19:33:05.110Z,79.70
2019-05-18T19:35:33.890Z,80.00
2019-05-18T19:38:02.706Z,80.10
2019-05-18T19:40:31.458Z,80.60
2019-05-18T19:43:00.281Z,81.40
2019-05-18T19:45:29.060Z,81.10
2019-05-18T19:47:57.844Z,81.10
2019-05-18T19:50:26.634Z,81.40
2019-05-18T19:52:55.414Z,81.60
2019-05-18T19:55:24.244Z,82.70
2019-05-18T19:57:53.031Z,83.00
2019-05-18T20:00:21.999Z,83.20
2019-05-18T20:02:50.820Z,83.90
2019-05-18T20:05:19.600Z,84.00
2019-05-18T20:07:48.770Z,84.60
2019-05-18T20:10:17.666Z,85.30
2019-05-18T20:12:46.400Z,86.10
2019-05-18T20:15:15.177Z,86.40
2019-05-18T20:17:43.990Z,88.50
2019-05-18T20:20:14.074Z,88.50
2019-05-18T20:22:42.865Z,89.00
2019-05-18T20:25:11.703Z,88.90
2019-05-18T20:27:40.459Z,88.40
2019-05-18T20:30:09.373Z,88.40
2019-05-18T20:32:38.328Z,88.20
2019-05-18T20:35:07.098Z,88.10
2019-05-18T20:37:35.913Z,88.00
2019-05-18T20:40:05.820Z,88.30
2019-05-18T20:42:37.515Z,87.60
2019-05-18T20:45:05.423Z,87.30
2019-05-18T20:47:34.440Z,86.90
2019-05-18T20:50:03.805Z,87.00
2019-05-18T20:52:32.592Z,86.80
2019-05-18T20:55:01.403Z,86.70
2019-05-18T20:57:31.230Z,86.50
2019-05-18T21:00:00.015Z,86.00
2019-05-18T21:02:30.375Z,85.10
2019-05-18T21:04:59.166Z,84.70
2019-05-18T21:07:28.898Z,84.50
2019-05-18T21:09:57.749Z,84.20
2019-05-18T21:12:26.779Z,82.80
2019-05-18T21:14:55.617Z,83.10
2019-05-18T21:17:24.351Z,83.20
2019-05-18T21:19:53.187Z,84.10
2019-05-18T21:22:22.035Z,84.70
2019-05-18T21:24:50.821Z,86.10
2019-05-18T21:27:19.610Z,88.10
2019-05-18T21:29:48.431Z,90.00
2019-05-18T21:32:18.150Z,90.10
2019-05-18T21:34:46.985Z,90.40
2019-05-18T21:37:15.807Z,90.00
2019-05-18T21:39:44.595Z,90.20
2019-05-18T21:42:13.393Z,90.50
2019-05-18T21:44:42.170Z,90.80
2019-05-18T21:47:10.888Z,91.10
2019-05-18T21:49:39.671Z,91.40
2019-05-18T21:52:08.450Z,91.90
2019-05-18T21:54:37.208Z,92.10
2019-05-18T21:57:05.967Z,92.00
2019-05-18T21:59:34.678Z,92.10
2019-05-18T22:02:04.058Z,91.50
2019-05-18T22:04:32.844Z,91.60
2019-05-18T22:07:01.614Z,92.00
2019-05-18T22:09:30.336Z,91.30
2019-05-18T22:11:59.131Z,91.40
2019-05-18T22:14:28.305Z,90.30
2019-05-18T22:16:57.082Z,90.60
2019-05-18T22:19:26.075Z,90.50
2019-05-18T22:21:54.866Z,90.70
2019-05-18T22:24:25.045Z,90.80
2019-05-18T22:26:53.826Z,90.60
2019-05-18T22:29:22.641Z,91.40
2019-05-18T22:31:51.417Z,90.80
2019-05-18T22:34:20.980Z,90.60
2019-05-18T22:36:49.759Z,91.10
2019-05-18T22:39:18.547Z,91.40
2019-05-18T22:41:47.366Z,91.50
2019-05-18T22:44:16.177Z,91.60
2019-05-18T22:46:44.949Z,91.40
2019-05-18T22:49:13.675Z,91.60
2019-05-18T22:51:42.467Z,91.90
2019-05-18T22:54:11.253Z,91.70
2019-05-18T22:56:39.959Z,91.70
2019-05-18T22:59:08.742Z,92.20
2019-05-18T23:01:37.790Z,92.40
2019-05-18T23:04:06.578Z,92.00
2019-05-18T23:06:35.392Z,92.20
2019-05-18T23:09:04.972Z,92.30
2019-05-18T23:11:33.761Z,92.60
2019-05-18T23:14:02.553Z,92.30
2019-05-18T23:16:31.340Z,92.30
2019-05-18T23:19:00.174Z,92.30
2019-05-18T23:21:28.937Z,92.80
2019-05-18T23:23:57.729Z,92.60
2019-05-18T23:26:26.522Z,92.60
2019-05-18T23:28:55.297Z,92.60
2019-05-18T23:31:24.033Z,93.40
2019-05-18T23:33:52.811Z,93.00
2019-05-18T23:36:21.902Z,93.00
2019-05-18T23:38:50.606Z,92.90
2019-05-18T23:41:19.312Z,93.60
2019-05-18T23:43:48.119Z,93.40
2019-05-18T23:46:16.830Z,93.00
2019-05-18T23:48:45.545Z,92.90
2019-05-18T23:51:14.354Z,92.90
2019-05-18T23:53:43.131Z,93.00
2019-05-18T23:56:11.913Z,92.90
2019-05-18T23:58:40.622Z,92.50
